Time;durP1;ratioP1;P1;durP2;ratioP2;P2;SDS_P1;SDS_P2;PMS_P1;PMS_P2;Temp;Humidity;BMP_temperature;BMP_pressure;BME280_temperature;BME280_humidity;BME280_pressure;Samples;Min_cycle;Max_cycle;Signal;HPM_P1;HPM_P2
2021/10/11 00:00:26;;;;;;;;;38.75;37.00;;;;;12.40;42.98;102265.72;5054241;28;11569;-71
2021/10/11 00:03:22;;;;;;;;;35.25;34.75;;;;;12.33;43.17;102262.53;5052870;28;11519;-71
2021/10/11 00:06:17;;;;;;;;;34.50;33.75;;;;;12.42;42.63;102266.28;5034867;28;11574;-70
2021/10/11 00:09:13;;;;;;;;;36.25;33.25;;;;;12.33;43.02;102267.25;5034338;28;11535;-71
2021/10/11 00:12:08;;;;;;;;;33.00;32.25;;;;;12.29;43.09;102263.47;5034441;28;11586;-70
2021/10/11 00:15:04;;;;;;;;;31.00;28.25;;;;;12.23;42.86;102262.72;5045330;28;11559;-71
2021/10/11 00:18:00;;;;;;;;;27.00;27.00;;;;;12.32;42.83;102254.50;5032612;28;11541;-69
2021/10/11 00:20:56;;;;;;;;;24.50;24.50;;;;;12.22;42.88;102261.91;5037874;28;11541;-69
2021/10/11 00:23:51;;;;;;;;;28.50;27.00;;;;;12.34;42.64;102255.84;5071576;28;11558;-69
2021/10/11 00:26:47;;;;;;;;;29.50;29.50;;;;;12.21;43.01;102259.44;5074230;28;11508;-72
2021/10/11 00:29:43;;;;;;;;;38.25;33.75;;;;;12.24;43.60;102256.03;5065935;28;11661;-69
2021/10/11 00:32:39;;;;;;;;;36.00;30.75;;;;;12.18;43.32;102249.75;5052377;28;12314;-69
2021/10/11 00:35:35;;;;;;;;;28.00;27.25;;;;;12.19;42.94;102248.66;5040066;28;11548;-69
2021/10/11 00:38:30;;;;;;;;;24.50;22.00;;;;;12.11;43.18;102243.75;5052980;28;11311;-69
2021/10/11 00:41:28;;;;;;;;;33.75;29.75;;;;;12.12;43.11;102239.91;5053064;28;11534;-69
2021/10/11 00:44:24;;;;;;;;;36.75;33.75;;;;;11.96;43.58;102235.72;5059997;28;11531;-69
2021/10/11 00:47:19;;;;;;;;;31.50;28.75;;;;;12.07;43.24;102237.19;5072658;28;11557;-70
2021/10/11 00:50:15;;;;;;;;;33.50;33.50;;;;;11.87;43.64;102234.75;5073799;28;11520;-70
2021/10/11 00:53:11;;;;;;;;;36.00;32.50;;;;;11.86;43.53;102224.78;5032836;28;11657;-70
2021/10/11 00:56:07;;;;;;;;;50.50;41.50;;;;;11.94;44.09;102218.56;5032921;28;11625;-70
2021/10/11 00:59:02;;;;;;;;;41.75;37.75;;;;;11.93;43.58;102222.47;5037518;28;11580;-70
2021/10/11 01:01:58;;;;;;;;;40.50;38.00;;;;;11.87;43.95;102224.47;5052788;28;11736;-69
2021/10/11 01:04:53;;;;;;;;;34.00;34.00;;;;;11.82;43.84;102223.78;5072123;28;11522;-70
2021/10/11 01:07:49;;;;;;;;;37.50;36.00;;;;;11.73;43.78;102214.44;5072483;28;11567;-70
2021/10/11 01:10:49;;;;;;;;;41.75;38.50;;;;;11.76;44.16;102213.84;5052646;28;12246;-70
2021/10/11 01:13:44;;;;;;;;;47.50;38.50;;;;;11.65;44.03;102214.03;5020241;28;11585;-70
2021/10/11 01:16:40;;;;;;;;;35.00;31.00;;;;;11.60;43.87;102211.31;5032611;28;11782;-70
2021/10/11 01:19:37;;;;;;;;;53.00;44.75;;;;;11.66;44.25;102210.13;5032344;28;11602;-69
2021/10/11 01:22:35;;;;;;;;;43.50;39.25;;;;;11.62;44.23;102209.06;5058525;28;11581;-70
2021/10/11 01:25:31;;;;;;;;;44.50;40.50;;;;;11.57;44.44;102216.63;5072361;28;11597;-70
2021/10/11 01:28:28;;;;;;;;;44.75;41.00;;;;;11.51;44.35;102215.06;5071271;28;11591;-70
2021/10/11 01:31:24;;;;;;;;;51.75;43.75;;;;;11.48;44.84;102218.44;5072294;28;11573;-70
2021/10/11 01:34:19;;;;;;;;;40.25;35.25;;;;;11.43;44.63;102216.56;5071884;28;11612;-70
2021/10/11 01:37:16;;;;;;;;;40.75;38.00;;;;;11.37;44.63;102218.59;5065273;28;11584;-69
2021/10/11 01:40:11;;;;;;;;;40.00;38.00;;;;;11.37;44.95;102209.47;5052726;28;11597;-69
2021/10/11 01:43:08;;;;;;;;;35.50;33.25;;;;;11.32;44.82;102215.06;5051807;28;11606;-69
2021/10/11 01:46:03;;;;;;;;;40.75;37.00;;;;;11.24;44.95;102211.00;5052276;28;11607;-70
2021/10/11 01:48:59;;;;;;;;;45.75;39.50;;;;;11.16;45.32;102200.59;5051922;28;11617;-70
2021/10/11 01:51:55;;;;;;;;;39.25;36.75;;;;;11.29;45.17;102202.66;5060873;28;11638;-70
2021/10/11 01:54:52;;;;;;;;;54.75;44.00;;;;;11.31;44.91;102196.78;5071983;28;11688;-70
2021/10/11 01:57:48;;;;;;;;;47.00;41.25;;;;;11.16;45.11;102205.31;5058325;28;11698;-70
2021/10/11 02:00:43;;;;;;;;;45.00;41.75;;;;;11.02;45.58;102197.75;5072000;28;11553;-70
2021/10/11 02:03:39;;;;;;;;;44.50;39.75;;;;;11.02;45.39;102199.69;5071999;28;11667;-70
2021/10/11 02:06:35;;;;;;;;;41.00;38.00;;;;;10.94;45.79;102197.59;5071909;28;11693;-69
2021/10/11 02:09:30;;;;;;;;;26.75;26.00;;;;;10.84;46.15;102196.59;5072278;28;11669;-69
2021/10/11 02:12:26;;;;;;;;;40.00;38.50;;;;;10.85;46.01;102191.88;5076119;28;11712;-71
2021/10/11 02:15:22;;;;;;;;;41.25;37.75;;;;;10.95;46.16;102193.69;5075829;28;11599;-70
2021/10/11 02:18:17;;;;;;;;;31.50;31.25;;;;;10.99;45.90;102190.03;5044620;28;11600;-70
2021/10/11 02:21:13;;;;;;;;;50.00;42.25;;;;;10.94;45.91;102198.41;5055828;28;11610;-70
2021/10/11 02:24:09;;;;;;;;;38.50;37.50;;;;;10.92;46.18;102205.38;5042389;28;11631;-70
2021/10/11 02:27:04;;;;;;;;;45.25;40.25;;;;;10.84;46.47;102196.59;5055160;28;11608;-69
2021/10/11 02:30:00;;;;;;;;;38.25;36.25;;;;;10.88;46.14;102193.22;5055650;28;11599;-69
2021/10/11 02:32:55;;;;;;;;;47.50;39.50;;;;;10.80;46.39;102191.94;5055803;28;11604;-70
2021/10/11 02:35:51;;;;;;;;;34.25;34.00;;;;;10.84;46.59;102188.28;5055458;28;11690;-70
2021/10/11 02:38:46;;;;;;;;;40.00;37.00;;;;;10.81;46.31;102176.97;5036881;28;11639;-70
2021/10/11 02:41:42;;;;;;;;;47.50;39.00;;;;;10.93;46.21;102159.94;5035415;28;11640;-70
2021/10/11 02:44:37;;;;;;;;;38.75;37.50;;;;;10.84;46.33;102171.69;5035841;28;11630;-70
2021/10/11 02:47:33;;;;;;;;;44.50;38.75;;;;;10.88;46.36;102171.91;5034569;28;11602;-70
2021/10/11 02:50:29;;;;;;;;;38.75;37.25;;;;;10.83;46.57;102169.22;5035388;28;11722;-70
2021/10/11 02:53:24;;;;;;;;;39.25;37.25;;;;;10.85;46.19;102159.50;5035226;28;11611;-70
2021/10/11 02:56:20;;;;;;;;;29.75;29.75;;;;;10.89;46.19;102156.97;5035234;28;11600;-70
2021/10/11 02:59:16;;;;;;;;;42.00;38.50;;;;;10.94;46.34;102164.38;5042624;28;11557;-69
2021/10/11 03:02:11;;;;;;;;;33.75;33.75;;;;;10.98;46.26;102157.13;5054929;28;12393;-70
2021/10/11 03:05:07;;;;;;;;;32.00;31.50;;;;;10.86;46.31;102152.84;5054959;28;11588;-70
2021/10/11 03:08:03;;;;;;;;;33.75;30.00;;;;;10.96;46.18;102151.84;5055859;28;11599;-70
2021/10/11 03:10:59;;;;;;;;;27.00;24.25;;;;;10.94;46.43;102147.75;5054831;28;12451;-70
2021/10/11 03:13:54;;;;;;;;;38.00;36.50;;;;;11.03;46.49;102143.19;5054193;28;12475;-70
2021/10/11 03:16:50;;;;;;;;;38.50;35.75;;;;;10.97;46.50;102141.63;5054504;28;11596;-70
2021/10/11 03:19:45;;;;;;;;;43.00;39.25;;;;;11.12;46.25;102135.88;5055518;28;11611;-69
2021/10/11 03:22:42;;;;;;;;;48.00;40.75;;;;;11.00;45.75;102128.00;5041229;28;11603;-70
2021/10/11 03:25:37;;;;;;;;;49.00;39.50;;;;;11.08;46.06;102132.88;5053708;28;11606;-69
2021/10/11 03:28:33;;;;;;;;;43.25;38.00;;;;;11.08;46.24;102135.66;5053955;28;11613;-69
2021/10/11 03:31:28;;;;;;;;;36.75;35.00;;;;;11.04;46.02;102126.31;5054322;28;11698;-69
2021/10/11 03:34:24;;;;;;;;;41.50;36.50;;;;;10.95;46.20;102119.75;5055170;28;11594;-69
2021/10/11 03:37:20;;;;;;;;;50.75;42.75;;;;;11.08;46.17;102126.50;5054336;28;11627;-70
2021/10/11 03:40:16;;;;;;;;;64.00;52.25;;;;;11.04;46.18;102115.22;5035820;28;11681;-70
2021/10/11 03:43:11;;;;;;;;;49.75;43.00;;;;;11.01;45.90;102110.28;5034375;28;11610;-70
2021/10/11 03:46:07;;;;;;;;;50.00;43.50;;;;;11.03;46.58;102123.81;5034169;28;11631;-69
2021/10/11 03:49:03;;;;;;;;;55.75;42.00;;;;;11.04;46.08;102120.75;5034181;28;11727;-69
2021/10/11 03:51:59;;;;;;;;;48.50;41.25;;;;;11.14;45.74;102120.59;5045997;28;12304;-70
2021/10/11 03:54:54;;;;;;;;;42.75;37.25;;;;;11.14;45.82;102117.03;5057353;28;11616;-68
2021/10/11 03:57:50;;;;;;;;;41.25;38.00;;;;;11.18;46.10;102118.03;5040590;28;12551;-69
2021/10/11 04:00:45;;;;;;;;;37.50;36.50;;;;;11.14;45.89;102126.16;5054497;28;11664;-69
2021/10/11 04:03:13;;;;;;;;;32.25;32.25;;;;;11.07;45.84;102117.38;5054071;28;12465;-70
2021/10/11 04:05:48;;;;;;;;;41.00;38.25;;;;;11.11;45.99;102115.66;5035133;28;11618;-69
2021/10/11 04:08:19;;;;;;;;;27.00;26.00;;;;;11.11;45.87;102115.66;5034899;28;11627;-70
2021/10/11 04:14:05;;;;;;;;;45.00;40.00;;;;;11.18;45.89;102108.91;5054438;28;11690;-70
2021/10/11 04:17:01;;;;;;;;;40.50;35.50;;;;;11.12;45.79;102110.97;5050870;28;11615;-70
2021/10/11 04:19:29;;;;;;;;;32.00;32.00;;;;;11.12;45.99;102105.44;5043631;28;11646;-70
2021/10/11 04:21:57;;;;;;;;;55.25;44.25;;;;;11.08;45.98;102105.19;5054072;28;11616;-71
2021/10/11 04:24:52;;;;;;;;;43.50;39.00;;;;;11.09;45.94;102101.28;5053227;28;11728;-70
2021/10/11 04:27:35;;;;;;;;;41.50;37.25;;;;;11.14;45.74;102097.63;5053763;28;11633;-69
2021/10/11 04:30:03;;;;;;;;;35.50;34.25;;;;;10.95;46.02;102091.25;5054593;28;11593;-70
2021/10/11 04:32:31;;;;;;;;;42.25;39.00;;;;;11.10;46.01;102096.56;5054610;28;11611;-70
2021/10/11 04:34:59;;;;;;;;;44.50;38.50;;;;;11.05;45.96;102086.41;5054423;28;11646;-70
2021/10/11 04:37:28;;;;;;;;;39.50;35.25;;;;;11.07;46.09;102091.66;5054234;28;11621;-70
2021/10/11 04:40:23;;;;;;;;;26.75;24.25;;;;;11.62;68.21;102098.22;5048334;28;11716;-72
2021/10/11 04:43:19;;;;;;;;;37.50;34.25;;;;;11.90;49.31;102099.13;5046042;28;11545;-74
2021/10/11 04:46:15;;;;;;;;;29.00;28.00;;;;;12.59;61.31;102087.22;5039848;28;11569;-73
2021/10/11 04:48:42;;;;;;;;;32.75;32.50;;;;;12.39;52.97;102082.91;5053985;28;11530;-73
2021/10/11 04:51:12;;;;;;;;;46.25;38.50;;;;;12.71;54.00;102079.16;5052725;28;11545;-72
2021/10/11 04:53:39;;;;;;;;;51.75;40.25;;;;;13.30;60.66;102077.28;5054092;28;11660;-72
2021/10/11 04:56:07;;;;;;;;;34.00;31.50;;;;;12.61;51.92;102080.22;5053870;28;11558;-72
2021/10/11 04:58:35;;;;;;;;;34.75;34.00;;;;;12.74;50.76;102084.94;5053729;28;12286;-72
2021/10/11 05:01:02;;;;;;;;;30.75;26.00;;;;;13.12;56.17;102092.97;5053815;28;11633;-72
2021/10/11 05:03:31;;;;;;;;;49.00;42.50;;;;;12.98;49.70;102081.88;5053361;28;11520;-73
2021/10/11 05:05:59;;;;;;;;;41.75;38.25;;;;;13.31;51.44;102087.25;5053755;28;12446;-73
2021/10/11 05:08:26;;;;;;;;;35.75;34.00;;;;;13.01;49.08;102089.59;5053729;28;11538;-72
2021/10/11 05:10:54;;;;;;;;;34.50;33.50;;;;;12.97;55.41;102091.34;5035717;28;11679;-72
2021/10/11 05:13:22;;;;;;;;;30.50;30.50;;;;;13.01;51.52;102095.13;5052157;28;11560;-73
2021/10/11 05:15:49;;;;;;;;;44.75;38.50;;;;;12.95;51.65;102090.81;5053611;28;12110;-72
2021/10/11 05:18:17;;;;;;;;;34.25;32.75;;;;;13.10;51.74;102089.66;5053362;28;11628;-72
2021/10/11 05:20:49;;;;;;;;;36.00;34.00;;;;;13.40;59.28;102090.91;5052059;28;11199;-72
2021/10/11 05:23:18;;;;;;;;;31.25;30.75;;;;;13.47;56.71;102094.06;5053293;28;11182;-72
2021/10/11 05:25:46;;;;;;;;;48.50;39.00;;;;;13.62;50.95;102096.44;5053736;28;11268;-72
2021/10/11 05:28:13;;;;;;;;;47.50;41.00;;;;;13.13;46.28;102088.22;5051957;28;11180;-72
2021/10/11 05:30:42;;;;;;;;;40.75;36.25;;;;;13.50;54.40;102087.06;5035807;28;11578;-72
2021/10/11 05:33:10;;;;;;;;;34.25;33.25;;;;;13.71;57.26;102087.34;5053257;28;11587;-73
2021/10/11 05:35:38;;;;;;;;;50.50;40.00;;;;;13.36;50.50;102087.13;5052146;28;11355;-72
2021/10/11 05:38:06;;;;;;;;;44.75;39.25;;;;;13.43;50.74;102086.69;5052794;28;11578;-71
2021/10/11 05:40:34;;;;;;;;;44.00;40.25;;;;;13.13;44.78;102093.78;5052887;28;11688;-72
2021/10/11 05:43:03;;;;;;;;;55.00;45.75;;;;;12.89;44.91;102083.78;5052834;28;11555;-74
2021/10/11 05:45:31;;;;;;;;;41.25;38.50;;;;;13.57;47.71;102090.19;5035176;28;11552;-73
2021/10/11 05:47:59;;;;;;;;;41.00;34.25;;;;;13.57;49.79;102084.63;5051627;28;11561;-73
2021/10/11 05:50:26;;;;;;;;;38.50;35.50;;;;;13.41;48.42;102084.19;5053077;28;11542;-73
2021/10/11 05:52:55;;;;;;;;;33.75;32.50;;;;;13.63;55.77;102089.75;5051480;28;11550;-73
2021/10/11 05:55:23;;;;;;;;;30.50;30.00;;;;;13.70;50.38;102092.06;5051672;28;11376;-73
2021/10/11 05:57:51;;;;;;;;;33.50;31.25;;;;;13.58;52.24;102095.47;5051501;28;11164;-72
2021/10/11 06:00:19;;;;;;;;;25.00;23.25;;;;;13.58;51.15;102089.91;5052547;28;11929;-72
2021/10/11 06:02:46;;;;;;;;;36.25;34.00;;;;;13.72;54.53;102102.88;5052872;28;11207;-72
2021/10/11 06:05:14;;;;;;;;;34.75;33.75;;;;;14.17;54.24;102098.84;5034051;28;11383;-72
2021/10/11 06:07:42;;;;;;;;;32.75;30.75;;;;;13.42;47.56;102094.19;5051168;28;11178;-72
2021/10/11 06:10:09;;;;;;;;;34.25;31.00;;;;;13.41;52.26;102098.09;5052527;28;12132;-72
2021/10/11 06:12:37;;;;;;;;;36.25;34.00;;;;;13.63;50.98;102091.69;5052402;28;11124;-72
2021/10/11 06:15:06;;;;;;;;;33.25;33.00;;;;;13.22;46.28;102094.69;5052400;28;11625;-68
2021/10/11 06:17:36;;;;;;;;;37.25;34.75;;;;;13.52;49.36;102090.34;5052454;28;11533;-67
2021/10/11 06:20:04;;;;;;;;;53.75;44.50;;;;;13.61;48.35;102086.47;5051899;28;11580;-67
2021/10/11 06:22:35;;;;;;;;;37.25;34.25;;;;;13.23;44.27;102088.00;5052623;28;11515;-66
2021/10/11 06:25:31;;;;;;;;;34.25;33.00;;;;;13.09;44.70;102088.84;5051542;28;11509;-66
2021/10/11 06:28:27;;;;;;;;;45.50;38.50;;;;;13.02;44.47;102074.56;5039630;28;11299;-67
2021/10/11 06:31:22;;;;;;;;;34.00;33.75;;;;;12.80;44.17;102072.59;5052854;28;12294;-67
2021/10/11 06:34:18;;;;;;;;;50.25;41.25;;;;;12.80;44.42;102075.38;5050144;28;11611;-68
2021/10/11 06:37:13;;;;;;;;;48.25;42.50;;;;;12.93;45.03;102070.06;5036255;28;11600;-66
2021/10/11 06:40:09;;;;;;;;;55.75;47.00;;;;;12.95;45.52;102067.78;5051032;28;12211;-67
2021/10/11 06:43:05;;;;;;;;;47.75;40.00;;;;;12.97;45.03;102057.22;5051055;28;12341;-67
2021/10/11 06:46:00;;;;;;;;;39.25;36.00;;;;;13.08;44.48;102062.19;5040887;28;11571;-67
2021/10/11 06:48:42;;;;;;;;;39.50;37.00;;;;;13.17;44.25;102056.69;5051231;28;12287;-67
2021/10/11 06:51:09;;;;;;;;;39.00;36.00;;;;;13.18;44.11;102050.00;5051687;28;11585;-67
2021/10/11 06:53:37;;;;;;;;;34.00;32.00;;;;;13.38;43.91;102054.28;5051502;28;11564;-67
2021/10/11 06:56:32;;;;;;;;;30.00;26.75;;;;;13.19;44.46;102051.69;5039021;28;11255;-67
2021/10/11 06:59:28;;;;;;;;;36.25;34.75;;;;;13.30;44.02;102055.03;5052412;28;11543;-66
2021/10/11 07:02:24;;;;;;;;;40.75;37.75;;;;;13.23;44.56;102047.13;5051570;28;11526;-67
2021/10/11 07:05:19;;;;;;;;;34.75;33.00;;;;;13.29;44.22;102053.41;5040717;28;11574;-68
2021/10/11 07:08:15;;;;;;;;;34.50;33.00;;;;;13.29;44.40;102048.66;5050964;28;11362;-68
2021/10/11 07:11:11;;;;;;;;;29.00;29.00;;;;;13.32;44.17;102049.97;5054516;28;11530;-68
2021/10/11 07:14:06;;;;;;;;;27.75;27.75;;;;;13.51;44.53;102053.38;5042394;28;11170;-67
2021/10/11 07:17:02;;;;;;;;;34.75;33.00;;;;;13.53;44.42;102045.53;5034289;28;11240;-68
2021/10/11 07:19:43;;;;;;;;;30.00;29.25;;;;;13.62;43.87;102046.41;5050129;28;11234;-68
2021/10/11 07:22:39;;;;;;;;;29.25;28.50;;;;;13.74;44.23;102042.22;5036044;28;11129;-67
2021/10/11 07:25:34;;;;;;;;;28.75;28.25;;;;;13.81;43.90;102046.19;5034242;28;11012;-68
2021/10/11 07:28:30;;;;;;;;;25.25;24.75;;;;;13.93;43.82;102040.00;5034129;28;10949;-68
2021/10/11 07:31:26;;;;;;;;;35.00;33.75;;;;;13.98;43.92;102039.06;5052912;28;11057;-68
2021/10/11 07:34:22;;;;;;;;;28.50;26.00;;;;;13.73;44.12;102037.81;5054242;28;11043;-68
2021/10/11 07:37:18;;;;;;;;;27.50;25.50;;;;;13.78;44.67;102040.44;5053414;28;10841;-68
2021/10/11 07:40:13;;;;;;;;;27.25;26.75;;;;;13.79;44.12;102031.75;5053937;28;10931;-68
2021/10/11 07:43:09;;;;;;;;;27.25;27.25;;;;;13.73;44.61;102029.47;5054047;28;11146;-68
2021/10/11 07:46:06;;;;;;;;;24.50;23.25;;;;;13.85;44.60;102024.94;5034955;28;11310;-70
2021/10/11 07:49:02;;;;;;;;;27.75;27.50;;;;;13.90;44.56;102019.25;5033770;28;11007;-68
2021/10/11 07:51:57;;;;;;;;;30.00;30.00;;;;;14.12;44.39;102015.56;5028284;28;11000;-68
2021/10/11 07:54:25;;;;;;;;;30.75;28.00;;;;;14.30;44.43;102016.41;5054948;28;11120;-68
2021/10/11 07:56:53;;;;;;;;;27.25;27.00;;;;;14.36;44.19;102005.94;5054799;28;11096;-68
2021/10/11 07:59:48;;;;;;;;;23.50;22.75;;;;;14.56;44.21;102005.34;5053652;28;10910;-68
2021/10/11 08:02:45;;;;;;;;;32.50;32.00;;;;;14.34;43.62;102008.25;5053666;28;10836;-68
2021/10/11 08:05:41;;;;;;;;;36.25;33.25;;;;;14.56;43.73;102005.34;5053752;28;10886;-68
2021/10/11 08:08:36;;;;;;;;;25.00;25.00;;;;;14.58;43.92;102000.28;5033617;28;11024;-68
2021/10/11 08:11:32;;;;;;;;;40.50;36.25;;;;;14.51;43.63;101999.13;5041622;28;10685;-69
2021/10/11 08:14:27;;;;;;;;;34.00;33.25;;;;;14.71;44.03;101999.28;5053317;28;11162;-69
2021/10/11 08:17:23;;;;;;;;;39.50;34.00;;;;;14.75;43.63;101993.91;5052567;28;11030;-68
2021/10/11 08:20:06;;;;;;;;;41.00;34.75;;;;;14.79;43.91;101997.66;5038711;28;11028;-68
2021/10/11 08:22:34;;;;;;;;;35.50;33.00;;;;;14.83;43.81;101997.81;5054380;28;10861;-68
2021/10/11 08:25:30;;;;;;;;;32.50;31.25;;;;;14.80;44.06;101999.31;5053052;28;10781;-68
2021/10/11 08:28:25;;;;;;;;;30.50;30.25;;;;;14.63;44.68;101988.16;5052554;28;10662;-68
2021/10/11 08:31:21;;;;;;;;;36.00;34.75;;;;;14.82;44.49;101983.09;5053732;28;10739;-69
2021/10/11 08:34:16;;;;;;;;;30.00;29.00;;;;;14.88;44.58;101989.31;5053692;28;10772;-68
2021/10/11 08:37:12;;;;;;;;;43.50;39.50;;;;;15.20;44.48;101991.56;5039290;28;10591;-68
2021/10/11 08:39:41;;;;;;;;;43.00;36.00;;;;;15.15;44.20;101985.34;5053394;28;11260;-67
2021/10/11 08:42:38;;;;;;;;;50.75;42.75;;;;;15.02;44.36;101984.34;5043782;28;10999;-67
2021/10/11 08:45:33;;;;;;;;;45.00;39.50;;;;;15.02;44.36;101985.19;5052769;28;11331;-68
2021/10/11 08:48:31;;;;;;;;;42.75;36.25;;;;;15.00;44.31;101978.31;5052884;28;11024;-68
2021/10/11 08:51:26;;;;;;;;;27.50;27.50;;;;;14.86;44.56;101986.00;5052856;28;11188;-68
2021/10/11 08:54:22;;;;;;;;;51.75;42.25;;;;;14.92;44.37;101973.56;5052541;28;10762;-68
2021/10/11 08:57:29;;;;;;;;;45.50;40.00;;;;;15.09;44.00;101979.09;5052513;28;11516;-71
2021/10/11 09:00:25;;;;;;;;;41.00;36.75;;;;;15.33;44.06;101974.97;5039114;28;11276;-71
2021/10/11 09:03:22;;;;;;;;;53.50;45.75;;;;;15.48;43.65;101963.25;5052647;28;10878;-71
2021/10/11 09:06:17;;;;;;;;;68.00;51.00;;;;;15.67;43.53;101966.53;5052231;28;11568;-71
2021/10/11 09:09:13;;;;;;;;;58.00;47.50;;;;;15.41;43.24;101954.59;5052689;28;11554;-72
2021/10/11 09:12:16;;;;;;;;;70.25;54.25;;;;;15.52;43.39;101953.09;5052409;28;11544;-71
2021/10/11 09:15:14;;;;;;;;;41.75;36.75;;;;;15.56;43.45;101954.91;5054025;28;11537;-71
2021/10/11 09:18:11;;;;;;;;;42.50;34.25;;;;;15.63;43.02;101951.59;5052109;28;10927;-71
2021/10/11 09:21:08;;;;;;;;;33.00;33.00;;;;;15.74;42.61;101957.63;5052941;28;10751;-71
2021/10/11 09:24:09;;;;;;;;;52.25;43.50;;;;;16.11;42.37;101937.25;5052072;28;10943;-71
2021/10/11 09:27:04;;;;;;;;;44.00;38.25;;;;;16.58;41.83;101937.03;5051952;28;11162;-71
2021/10/11 09:29:35;;;;;;;;;37.00;34.50;;;;;16.92;41.38;101937.91;5053264;28;10767;-71
2021/10/11 09:32:06;;;;;;;;;25.00;23.50;;;;;16.90;41.36;101937.44;5053409;28;10324;-71
2021/10/11 09:34:38;;;;;;;;;24.25;24.25;;;;;16.95;41.43;101938.03;5052874;28;9703;-72
2021/10/11 09:37:15;;;;;;;;;23.25;21.75;;;;;17.07;41.42;101933.66;5052511;28;9902;-71
2021/10/11 09:39:43;;;;;;;;;31.50;29.50;;;;;17.36;40.87;101927.88;5053271;28;9855;-71
2021/10/11 09:42:16;;;;;;;;;21.25;19.00;;;;;17.39;40.60;101924.38;5053303;28;9883;-72
2021/10/11 09:44:55;;;;;;;;;31.25;29.75;;;;;17.32;40.03;101907.38;5052960;28;10301;-72
2021/10/11 09:47:36;;;;;;;;;40.50;35.25;;;;;17.69;39.83;101919.41;5035181;28;10972;-72
2021/10/11 09:50:08;;;;;;;;;3.00;3.00;;;;;17.46;40.21;101918.22;5053126;28;10044;-72
2021/10/11 09:52:37;;;;;;;;;30.00;27.00;;;;;17.73;40.80;101916.75;5053041;28;9772;-74
2021/10/11 09:55:07;;;;;;;;;30.50;29.75;;;;;17.69;40.80;101907.41;5035732;28;9827;-73
2021/10/11 09:57:35;;;;;;;;;17.67;17.67;;;;;17.41;42.07;101910.91;5052277;28;9735;-73
2021/10/11 10:00:10;;;;;;;;;9.33;9.33;;;;;17.77;42.61;101909.28;5052065;28;9249;-73
2021/10/11 10:03:07;;;;;;;;;21.67;21.67;;;;;17.86;41.28;101893.19;5031820;28;9926;-73
2021/10/11 10:06:06;;;;;;;;;18.67;17.00;;;;;18.03;40.70;101898.56;5033300;28;9440;-73
2021/10/11 10:09:07;;;;;;;;;30.67;30.67;;;;;18.52;40.50;101887.19;5046475;28;9060;-72
2021/10/11 10:12:07;;;;;;;;;21.00;21.00;;;;;18.16;41.24;101890.09;5053339;28;9308;-73
2021/10/11 10:15:04;;;;;;;;;21.33;21.00;;;;;17.96;41.75;101877.91;5059243;28;9249;-73
2021/10/11 10:18:10;;;;;;;;;26.50;26.25;;;;;18.11;41.46;101879.97;5039478;28;9994;-72
2021/10/11 10:21:06;;;;;;;;;39.75;35.25;;;;;18.39;41.76;101877.19;5062649;28;10400;-73
2021/10/11 10:24:02;;;;;;;;;31.50;30.50;;;;;18.74;41.23;101874.66;5053852;28;9889;-72
2021/10/11 10:27:09;;;;;;;;;39.00;34.00;;;;;19.27;40.81;101869.66;5059111;28;10261;-73
2021/10/11 10:30:21;;;;;;;;;20.33;20.33;;;;;19.50;39.76;101866.19;5057815;28;9525;-74
2021/10/11 10:33:06;;;;;;;;;18.00;18.00;;;;;19.48;39.97;101865.75;5074579;28;8967;-73
2021/10/11 10:35:44;;;;;;;;;21.25;21.25;;;;;19.80;39.10;101864.56;5056527;28;8852;-72
2021/10/11 10:38:22;;;;;;;;;16.00;16.00;;;;;19.13;40.28;101858.06;5071338;28;8864;-73
2021/10/11 10:40:49;;;;;;;;;27.25;24.25;;;;;18.59;41.45;101852.97;5071703;28;8871;-73
2021/10/11 10:43:19;;;;;;;;;20.00;19.00;;;;;18.47;41.76;101853.81;5055080;28;9598;-73
2021/10/11 10:46:15;;;;;;;;;21.25;21.00;;;;;18.73;41.86;101842.19;5068157;28;8853;-73
2021/10/11 10:49:10;;;;;;;;;22.25;20.75;;;;;18.39;42.71;101846.38;5074096;28;8991;-72
2021/10/11 10:52:11;;;;;;;;;35.67;32.67;;;;;18.44;43.03;101842.53;5073986;28;8845;-72
2021/10/11 10:54:44;;;;;;;;;20.00;20.00;;;;;18.67;42.73;101837.19;5076027;28;9530;-74
2021/10/11 10:57:18;;;;;;;;;21.00;19.67;;;;;18.61;43.03;101836.59;5076065;28;8999;-73
2021/10/11 11:00:17;;;;;;;;;19.33;19.33;;;;;18.51;43.39;101835.16;5050940;28;8905;-73
2021/10/11 11:03:14;;;;;;;;;30.33;29.00;;;;;18.66;43.41;101835.56;5039900;28;8927;-73
2021/10/11 11:05:43;;;;;;;;;29.67;29.67;;;;;18.46;43.03;101828.97;5017952;28;9298;-74
2021/10/11 11:08:38;;;;;;;;;25.00;25.00;;;;;18.46;43.48;101821.38;5021728;28;9356;-73
2021/10/11 11:11:34;;;;;;;;;41.00;36.50;;;;;18.39;43.40;101821.19;5034551;28;9271;-72
2021/10/11 11:14:29;;;;;;;;;33.67;32.33;;;;;18.23;43.67;101817.53;5021184;28;9971;-73
2021/10/11 11:17:34;;;;;;;;;34.25;32.50;;;;;18.17;43.72;101818.94;5034226;28;9388;-73
2021/10/11 11:20:33;;;;;;;;;17.67;17.67;;;;;18.01;44.09;101818.88;5034503;28;9500;-72
2021/10/11 11:23:34;;;;;;;;;17.67;17.33;;;;;18.51;43.71;101815.53;5058645;28;9010;-72
2021/10/11 11:26:29;;;;;;;;;20.33;20.00;;;;;18.51;43.43;101809.94;5067038;28;9014;-72
2021/10/11 11:29:25;;;;;;;;;18.33;17.67;;;;;18.49;43.45;101803.06;5074352;28;9213;-72
2021/10/11 11:32:21;;;;;;;;;13.75;13.75;;;;;18.39;43.75;101795.16;5067931;28;9041;-73
2021/10/11 11:35:18;;;;;;;;;16.50;15.75;;;;;19.37;42.43;101801.78;5054343;28;8885;-74
2021/10/11 11:38:17;;;;;;;;;14.25;14.25;;;;;20.24;40.41;101797.72;5054261;28;8839;-72
2021/10/11 11:41:12;;;;;;;;;12.00;12.00;;;;;20.74;39.21;101793.09;5053376;28;8832;-73
2021/10/11 11:44:08;;;;;;;;;14.25;14.25;;;;;20.25;39.25;101796.53;5037151;28;8837;-72
2021/10/11 11:46:36;;;;;;;;;14.00;14.00;;;;;20.32;39.50;101792.22;5060317;28;8835;-73
2021/10/11 11:49:03;;;;;;;;;19.00;19.00;;;;;20.53;38.79;101778.63;5020499;28;8852;-73
2021/10/11 11:52:11;;;;;;;;;22.00;20.50;;;;;20.65;39.00;101791.72;5053262;28;8917;-73
2021/10/11 11:55:08;;;;;;;;;18.75;17.00;;;;;20.92;37.85;101789.75;5053463;28;9695;-73
2021/10/11 11:57:49;;;;;;;;;16.50;16.50;;;;;21.04;37.83;101784.78;5053440;28;8879;-74
2021/10/11 12:00:56;;;;;;;;;28.00;27.00;;;;;21.36;37.19;101774.06;5053515;28;8836;-73
2021/10/11 12:03:28;;;;;;;;;33.00;32.00;;;;;20.96;37.29;101774.59;5064874;28;8947;-73
2021/10/11 12:06:29;;;;;;;;;18.00;18.00;;;;;20.35;38.10;101772.66;5052070;28;8986;-72
2021/10/11 12:09:25;;;;;;;;;18.75;18.75;;;;;20.40;38.27;101765.94;5040720;28;9609;-73
2021/10/11 12:12:30;;;;;;;;;20.00;20.00;;;;;20.69;38.24;101756.84;5041875;28;8887;-74
2021/10/11 12:15:27;;;;;;;;;22.50;22.50;;;;;20.86;37.08;101749.13;5053560;28;8872;-74
2021/10/11 12:18:34;;;;;;;;;15.25;15.25;;;;;21.12;36.93;101749.13;5053987;28;8866;-74
2021/10/11 12:21:36;;;;;;;;;15.00;15.00;;;;;20.92;36.65;101747.59;5053360;28;8858;-74
2021/10/11 12:24:32;;;;;;;;;16.75;16.75;;;;;21.10;36.98;101745.91;5053296;28;8899;-74
2021/10/11 12:27:28;;;;;;;;;22.50;22.50;;;;;21.43;36.86;101738.78;5040034;28;8858;-75
2021/10/11 12:30:25;;;;;;;;;27.50;27.50;;;;;21.73;36.08;101738.78;5053244;28;8987;-74
2021/10/11 12:33:20;;;;;;;;;27.25;26.25;;;;;22.02;35.20;101726.69;5061060;28;9037;-74
2021/10/11 12:36:17;;;;;;;;;23.50;23.25;;;;;21.88;35.25;101734.97;5060785;28;8831;-74
2021/10/11 12:39:12;;;;;;;;;31.00;29.75;;;;;21.75;35.15;101733.59;5053028;28;8865;-74
2021/10/11 12:42:15;;;;;;;;;32.75;31.75;;;;;21.96;34.97;101733.06;5053130;28;9635;-74
2021/10/11 12:45:13;;;;;;;;;20.25;19.00;;;;;21.71;35.33;101729.94;5039347;28;8883;-75
2021/10/11 12:48:08;;;;;;;;;26.50;25.75;;;;;21.52;36.53;101728.84;5052701;28;8839;-74
2021/10/11 12:51:04;;;;;;;;;20.25;20.25;;;;;21.30;36.69;101727.72;5052525;28;8847;-73